Time;durP1;ratioP1;P1;durP2;ratioP2;P2;SDS_P1;SDS_P2;PMS_P1;PMS_P2;Temp;Humidity;BMP_temperature;BMP_pressure;BME280_temperature;BME280_humidity;BME280_pressure;Samples;Min_cycle;Max_cycle;Signal;HPM_P1;HPM_P2
2022/04/02 00:01:17;;;;;;;18.65;4.10;;;;;;;16.32;59.54;100865.41;2095127;28;20039;-78
2022/04/02 00:02:45;;;;;;;32.42;5.68;;;;;;;16.30;59.55;100861.88;2106839;28;20679;-79
2022/04/02 00:04:09;;;;;;;30.05;5.53;;;;;;;16.28;59.49;100860.97;2110845;28;20032;-78
2022/04/02 00:05:32;;;;;;;33.45;6.80;;;;;;;16.27;59.47;100867.22;2099482;28;20055;-77
2022/04/02 00:06:56;;;;;;;29.00;6.20;;;;;;;16.26;59.44;100866.34;2099135;28;20507;-77
2022/04/02 00:08:18;;;;;;;22.38;6.07;;;;;;;16.25;59.41;100869.00;2106487;28;20044;-77
2022/04/02 00:09:40;;;;;;;24.55;5.57;;;;;;;16.22;59.47;100872.56;2101757;28;20726;-78
2022/04/02 00:11:03;;;;;;;22.23;5.28;;;;;;;16.18;59.50;100867.28;2107767;28;20043;-77
2022/04/02 00:12:26;;;;;;;26.08;5.78;;;;;;;16.14;59.74;100870.84;2099743;28;20415;-77
2022/04/02 00:13:50;;;;;;;19.73;5.85;;;;;;;16.06;59.86;100876.22;2098273;28;20044;-78
2022/04/02 00:15:13;;;;;;;30.63;5.80;;;;;;;16.01;60.10;100878.03;2097671;28;20047;-77
2022/04/02 00:16:35;;;;;;;27.20;5.05;;;;;;;15.98;60.14;100879.81;2103794;28;20076;-80
2022/04/02 00:18:01;;;;;;;26.00;5.28;;;;;;;15.96;60.09;100877.13;2106534;28;20075;-80
2022/04/02 00:19:24;;;;;;;20.52;4.80;;;;;;;15.88;60.00;100876.31;2110760;28;20138;-80
2022/04/02 00:20:45;;;;;;;26.30;4.75;;;;;;;15.83;60.15;100873.66;2109347;28;20138;-80
2022/04/02 00:22:07;;;;;;;26.40;6.88;;;;;;;15.82;60.04;100879.84;2110312;28;20035;-80
2022/04/02 00:23:44;;;;;;;33.30;5.97;;;;;;;15.78;60.07;100883.44;2104908;28;20071;-80
2022/04/02 00:25:09;;;;;;;30.23;4.95;;;;;;;15.73;60.26;100876.38;2112622;27;20048;-80
2022/04/02 00:26:30;;;;;;;29.30;6.18;;;;;;;15.64;60.54;100874.59;2106150;28;20159;-77
2022/04/02 00:27:54;;;;;;;26.77;4.68;;;;;;;15.59;60.73;100883.50;2103130;28;20162;-77
2022/04/02 00:29:16;;;;;;;25.27;5.47;;;;;;;15.60;60.80;100878.19;2102468;28;20500;-77
2022/04/02 00:30:39;;;;;;;26.52;6.72;;;;;;;15.63;60.75;100877.28;2104507;28;20599;-77
2022/04/02 00:32:02;;;;;;;35.10;6.60;;;;;;;15.64;60.54;100887.91;2109431;28;20169;-77
2022/04/02 00:33:26;;;;;;;23.10;6.03;;;;;;;15.67;60.64;100877.28;2107042;28;20571;-77
2022/04/02 00:34:50;;;;;;;24.90;5.68;;;;;;;15.68;60.56;100883.50;2109460;28;20603;-77
2022/04/02 00:36:14;;;;;;;29.85;6.03;;;;;;;15.71;60.56;100872.81;2111503;28;20055;-77
2022/04/02 00:37:37;;;;;;;24.15;6.18;;;;;;;15.72;60.42;100878.13;2111676;28;20134;-77
2022/04/02 00:39:00;;;;;;;20.77;6.05;;;;;;;15.68;60.54;100875.50;2113145;28;20614;-77
2022/04/02 00:40:21;;;;;;;31.40;5.70;;;;;;;15.64;60.56;100887.91;2104334;28;20048;-77
2022/04/02 00:41:44;;;;;;;36.97;5.60;;;;;;;15.52;60.66;100886.19;2106686;28;20035;-78
2022/04/02 00:43:05;;;;;;;18.13;3.88;;;;;;;15.48;60.99;100883.50;2101647;28;20058;-77
2022/04/02 00:44:30;;;;;;;28.10;6.35;;;;;;;15.46;61.06;100886.16;2107062;28;20093;-77
2022/04/02 00:45:52;;;;;;;29.45;5.35;;;;;;;15.45;61.02;100872.84;2105218;28;20504;-77
2022/04/02 00:47:16;;;;;;;26.15;5.15;;;;;;;15.43;60.95;100874.63;2108326;28;20445;-80
2022/04/02 00:48:40;;;;;;;20.42;5.32;;;;;;;15.40;61.09;100869.34;2110253;28;20772;-78
2022/04/02 00:50:03;;;;;;;22.70;6.07;;;;;;;15.36;61.15;100873.75;2103157;28;20052;-77
2022/04/02 00:51:26;;;;;;;27.33;5.00;;;;;;;15.33;61.13;100878.22;2114653;27;20079;-77
2022/04/02 00:52:52;;;;;;;34.78;6.80;;;;;;;15.29;61.18;100880.00;2114205;27;20039;-77
2022/04/02 00:54:17;;;;;;;26.13;5.75;;;;;;;15.21;61.48;100887.09;2095118;28;20037;-79
2022/04/02 00:55:41;;;;;;;24.75;5.90;;;;;;;15.14;61.86;100880.91;2106023;28;20050;-78
2022/04/02 00:57:04;;;;;;;30.40;9.30;;;;;;;15.10;61.92;100884.44;2101386;28;20528;-77
2022/04/02 00:58:25;;;;;;;46.70;15.20;;;;;;;15.06;62.04;100889.78;2101746;28;20075;-78
2022/04/02 00:59:48;;;;;;;30.30;11.43;;;;;;;15.05;62.15;100883.56;2100728;28;20681;-78
2022/04/02 01:01:11;;;;;;;41.90;9.10;;;;;;;15.09;62.05;100884.47;2096045;28;20443;-77
2022/04/02 01:02:34;;;;;;;34.92;11.40;;;;;;;15.11;62.15;100882.66;2101483;28;20035;-78
2022/04/02 01:04:01;;;;;;;25.67;5.50;;;;;;;15.14;61.86;100883.56;2101789;28;20059;-77
2022/04/02 01:05:29;;;;;;;28.70;5.72;;;;;;;15.13;61.79;100889.78;2109404;28;20040;-77
2022/04/02 01:06:52;;;;;;;27.60;6.80;;;;;;;15.13;61.86;100888.88;2101408;28;20048;-77
2022/04/02 01:08:17;;;;;;;26.90;5.43;;;;;;;15.13;61.66;100889.78;2110745;28;20035;-77
2022/04/02 01:09:43;;;;;;;24.02;5.18;;;;;;;15.13;61.64;100902.19;2102897;28;20424;-76
2022/04/02 01:11:07;;;;;;;31.10;7.18;;;;;;;15.12;61.66;100905.72;2099511;28;20135;-77
2022/04/02 01:12:29;;;;;;;30.02;5.35;;;;;;;15.12;61.57;100909.28;2099579;28;20044;-78
2022/04/02 01:13:55;;;;;;;38.45;7.47;;;;;;;15.11;61.61;100907.50;2099805;28;20594;-77
2022/04/02 01:15:18;;;;;;;25.40;6.10;;;;;;;15.11;61.56;100902.16;2100722;28;20154;-77
2022/04/02 01:16:46;;;;;;;32.60;5.47;;;;;;;15.09;61.72;100893.34;2109926;28;20096;-79
2022/04/02 01:18:16;;;;;;;14.05;4.10;;;;;;;15.04;61.79;100892.44;2106851;28;20105;-79
2022/04/02 01:19:42;;;;;;;17.60;5.50;;;;;;;14.99;61.71;100895.97;2101227;28;20040;-79
2022/04/02 01:21:13;;;;;;;35.47;4.95;;;;;;;14.91;61.88;100884.44;2102646;28;20143;-80
2022/04/02 01:22:44;;;;;;;25.35;5.18;;;;;;;14.85;61.97;100890.66;2102194;28;20040;-76
2022/04/02 01:24:07;;;;;;;27.10;4.82;;;;;;;14.79;62.06;100901.28;2102757;28;20610;-77
2022/04/02 01:25:32;;;;;;;33.65;5.88;;;;;;;14.75;62.32;100899.53;2107933;28;20578;-77
2022/04/02 01:26:58;;;;;;;32.83;6.05;;;;;;;14.68;62.59;100893.31;2105519;28;20056;-79
2022/04/02 01:28:24;;;;;;;33.20;5.97;;;;;;;14.70;62.60;100890.69;2111044;28;20035;-78
2022/04/02 01:29:51;;;;;;;36.72;6.07;;;;;;;14.76;62.66;100896.00;2097878;28;20064;-78
2022/04/02 01:31:14;;;;;;;32.75;5.18;;;;;;;14.81;62.39;100891.56;2109408;28;20058;-77
2022/04/02 01:32:37;;;;;;;31.05;7.53;;;;;;;14.82;62.28;100897.75;2103205;28;20127;-77
2022/04/02 01:34:07;;;;;;;36.75;8.30;;;;;;;14.80;62.33;100892.44;2104275;28;20077;-77
2022/04/02 01:35:31;;;;;;;40.78;6.72;;;;;;;14.81;62.32;100896.88;2099592;28;20048;-78
2022/04/02 01:37:10;;;;;;;25.05;4.28;;;;;;;14.78;62.22;100888.88;2096683;28;20492;-78
2022/04/02 01:38:40;;;;;;;24.92;4.57;;;;;;;14.76;62.15;100890.69;2098635;28;20064;-77
2022/04/02 01:40:03;;;;;;;29.23;5.13;;;;;;;14.71;62.33;100884.44;2101330;28;20036;-77
2022/04/02 01:41:35;;;;;;;25.02;5.38;;;;;;;14.71;62.18;100879.13;2105789;28;20056;-78
2022/04/02 01:43:03;;;;;;;38.17;7.13;;;;;;;14.71;62.12;100885.34;2088463;28;20071;-77
2022/04/02 01:44:27;;;;;;;30.85;6.40;;;;;;;14.70;62.10;100888.88;2100027;28;20086;-77
2022/04/02 01:45:54;;;;;;;26.38;4.97;;;;;;;14.72;62.01;100889.78;2092259;28;20044;-80
2022/04/02 01:47:23;;;;;;;24.55;4.53;;;;;;;14.71;62.07;100885.34;2107324;28;20046;-79
2022/04/02 01:48:47;;;;;;;33.72;5.45;;;;;;;14.70;62.16;100882.69;2100860;28;20036;-79
2022/04/02 01:50:23;;;;;;;54.25;10.88;;;;;;;14.67;61.94;100877.38;2117520;27;20054;-78
2022/04/02 01:51:49;;;;;;;30.40;6.43;;;;;;;14.63;62.17;100872.94;2105559;28;20121;-78
2022/04/02 01:53:16;;;;;;;43.47;6.45;;;;;;;14.55;62.44;100872.94;2102419;28;20054;-78
2022/04/02 01:54:51;;;;;;;35.10;5.68;;;;;;;14.50;62.58;100873.81;2101537;28;20032;-78
2022/04/02 01:56:15;;;;;;;36.42;6.68;;;;;;;14.48;62.73;100871.16;2101658;28;20501;-78
2022/04/02 01:57:45;;;;;;;34.65;6.93;;;;;;;14.50;62.67;100866.75;2101838;28;20082;-78
2022/04/02 01:59:12;;;;;;;33.72;6.50;;;;;;;14.54;62.52;100862.31;2100847;28;20044;-77
2022/04/02 02:00:36;;;;;;;39.92;6.22;;;;;;;14.55;62.42;100856.09;2098646;28;20047;-80
2022/04/02 02:02:00;;;;;;;36.75;6.28;;;;;;;14.57;62.37;100864.97;2102708;28;20072;-79
2022/04/02 02:03:26;;;;;;;37.75;6.55;;;;;;;14.57;62.33;100864.97;2100311;28;20040;-79
2022/04/02 02:04:49;;;;;;;30.02;6.75;;;;;;;14.58;62.25;100861.41;2115979;27;20055;-78
2022/04/02 02:06:12;;;;;;;36.22;7.20;;;;;;;14.57;62.28;100865.84;2099076;28;20048;-79
2022/04/02 02:07:38;;;;;;;38.78;6.57;;;;;;;14.52;62.48;100867.59;2092416;28;20120;-79
2022/04/02 02:09:02;;;;;;;39.40;6.68;;;;;;;14.41;62.56;100873.78;2092210;28;20695;-79
2022/04/02 02:10:52;;;;;;;37.28;6.82;;;;;;;14.24;62.95;100868.44;2097953;28;20552;-79
2022/04/02 02:12:33;;;;;;;39.20;6.47;;;;;;;14.16;63.19;100868.41;2113665;28;20439;-79
2022/04/02 02:14:18;;;;;;;35.63;7.85;;;;;;;14.19;63.23;100870.16;2111244;28;20488;-78
2022/04/02 02:15:44;;;;;;;41.40;10.45;;;;;;;14.25;63.08;100871.06;2101079;28;20140;-79
2022/04/02 02:17:07;;;;;;;37.67;7.03;;;;;;;14.32;62.90;100874.63;2102658;28;20090;-79
2022/04/02 02:18:31;;;;;;;44.72;8.10;;;;;;;14.36;62.57;100865.78;2105107;28;20484;-77
2022/04/02 02:19:53;;;;;;;28.25;6.32;;;;;;;14.35;62.48;100866.69;2100097;28;20416;-79
2022/04/02 02:21:18;;;;;;;35.42;8.23;;;;;;;14.36;62.42;100869.34;2094078;28;20040;-79
2022/04/02 02:22:41;;;;;;;38.28;6.40;;;;;;;14.36;62.49;100863.13;2099999;28;20052;-79
2022/04/02 02:24:05;;;;;;;31.23;5.95;;;;;;;14.34;62.57;100856.94;2104188;28;20058;-78
2022/04/02 02:25:30;;;;;;;38.38;5.68;;;;;;;14.35;62.54;100861.38;2111134;28;20059;-78
2022/04/02 02:26:53;;;;;;;37.72;6.75;;;;;;;14.32;62.55;100862.22;2102861;28;20177;-79
2022/04/02 02:28:26;;;;;;;27.25;5.78;;;;;;;14.31;62.74;100859.56;2102716;28;20056;-78
2022/04/02 02:29:51;;;;;;;26.85;5.78;;;;;;;14.33;62.68;100863.13;2098470;28;20032;-79
2022/04/02 02:31:18;;;;;;;28.48;5.53;;;;;;;14.34;62.61;100862.25;2101381;28;20078;-79
2022/04/02 02:32:47;;;;;;;39.95;11.30;;;;;;;14.33;62.52;100863.13;2099080;28;20058;-79
2022/04/02 02:35:56;;;;;;;45.92;12.90;;;;;;;14.27;62.83;100864.00;2095279;28;20063;-79
2022/04/02 02:37:30;;;;;;;39.90;11.07;;;;;;;14.28;62.84;100852.50;2101243;28;20424;-79
2022/04/02 02:38:59;;;;;;;32.83;7.97;;;;;;;14.30;62.69;100863.13;2088216;28;20362;-78
2022/04/02 02:40:32;;;;;;;47.45;8.43;;;;;;;14.25;62.85;100855.13;2108301;28;20051;-78
2022/04/02 02:41:57;;;;;;;35.25;8.18;;;;;;;14.26;62.80;100848.06;2096411;28;20058;-78
2022/04/02 02:43:31;;;;;;;38.05;7.78;;;;;;;14.26;62.84;100859.56;2094697;28;20128;-78
2022/04/02 02:45:03;;;;;;;34.50;7.60;;;;;;;14.30;62.73;100855.16;2101175;28;20035;-78
2022/04/02 02:46:27;;;;;;;32.72;9.25;;;;;;;14.31;62.68;100852.47;2090373;28;20045;-78
2022/04/02 02:47:57;;;;;;;38.33;7.65;;;;;;;14.30;62.71;100847.19;2099928;28;20040;-78
2022/04/02 02:49:28;;;;;;;38.95;7.40;;;;;;;14.28;62.68;100844.53;2110093;28;20424;-77
2022/04/02 02:50:53;;;;;;;33.95;7.15;;;;;;;14.29;62.61;100850.72;2103819;28;20044;-77
2022/04/02 02:52:16;;;;;;;42.63;8.63;;;;;;;14.25;62.83;100847.16;2102475;28;20070;-77
2022/04/02 02:53:39;;;;;;;44.90;7.88;;;;;;;14.26;62.77;100848.06;2101923;28;20826;-77
2022/04/02 02:55:02;;;;;;;32.17;6.55;;;;;;;14.26;63.01;100848.06;2103836;28;20131;-78
2022/04/02 02:56:28;;;;;;;53.95;7.57;;;;;;;14.24;62.79;100848.03;2106209;28;20399;-78
2022/04/02 02:57:52;;;;;;;37.90;5.68;;;;;;;14.23;62.92;100848.97;2102429;28;20092;-78
2022/04/02 02:59:15;;;;;;;39.45;7.78;;;;;;;14.22;63.07;100855.13;2099014;28;20391;-77
2022/04/02 03:00:36;;;;;;;32.40;8.20;;;;;;;14.24;62.91;100853.34;2099938;28;20136;-78
2022/04/02 03:02:02;;;;;;;41.20;6.65;;;;;;;14.24;62.86;100853.34;2102342;28;20072;-78
2022/04/02 03:03:26;;;;;;;53.72;7.95;;;;;;;14.23;62.71;100856.03;2093675;28;20566;-78
2022/04/02 03:04:51;;;;;;;38.83;6.50;;;;;;;14.22;62.64;100865.75;2102622;28;20126;-77
2022/04/02 03:06:20;;;;;;;41.65;7.60;;;;;;;14.21;62.59;100864.00;2099874;28;20108;-78
2022/04/02 03:07:48;;;;;;;40.58;7.25;;;;;;;14.18;62.58;100863.97;2093098;28;20493;-79
2022/04/02 03:09:14;;;;;;;34.97;4.88;;;;;;;14.15;62.49;100866.63;2100116;28;20138;-80
2022/04/02 03:10:37;;;;;;;31.85;5.05;;;;;;;14.15;62.42;100866.63;2102174;28;20085;-78
2022/04/02 03:11:59;;;;;;;30.08;5.45;;;;;;;14.12;62.49;100863.06;2103945;28;20063;-79
2022/04/02 03:13:23;;;;;;;;;;;;;;;14.07;62.56;100855.09;2101763;28;20040;-78
2022/04/02 03:14:47;;;;;;;39.92;6.25;;;;;;;14.01;62.60;100873.66;2094069;28;20397;-77
2022/04/02 03:16:09;;;;;;;35.55;8.32;;;;;;;13.93;62.76;100870.09;2104807;28;20032;-78
2022/04/02 03:17:39;;;;;;;39.30;6.15;;;;;;;13.83;63.23;100869.19;2107191;28;20050;-78
2022/04/02 03:19:03;;;;;;;;;;;;;;;13.80;63.32;100869.16;2102231;28;20044;-78
2022/04/02 03:20:26;;;;;;;28.05;6.28;;;;;;;13.76;63.50;100867.38;2105483;28;19947;-77
2022/04/02 03:21:53;;;;;;;35.95;7.75;;;;;;;13.80;63.49;100873.56;2101934;28;20036;-78
2022/04/02 03:23:16;;;;;;;25.95;6.32;;;;;;;13.84;63.52;100878.03;2113670;27;20428;-77
2022/04/02 03:24:38;;;;;;;41.67;6.68;;;;;;;13.88;63.42;100879.81;2096051;28;20051;-78
2022/04/02 03:26:04;;;;;;;56.20;9.32;;;;;;;13.88;63.40;100882.47;2106150;28;20040;-78
2022/04/02 03:27:33;;;;;;;41.40;8.98;;;;;;;13.88;63.43;100871.84;2102006;28;20044;-78
2022/04/02 03:28:58;;;;;;;35.40;6.18;;;;;;;13.88;63.39;100874.50;2099001;28;20047;-80
2022/04/02 03:30:24;;;;;;;30.70;6.57;;;;;;;13.86;63.32;100879.78;2100412;28;20054;-78
2022/04/02 03:31:48;;;;;;;29.83;6.20;;;;;;;13.85;63.28;100869.16;2102523;28;20127;-78
2022/04/02 03:33:14;;;;;;;42.03;8.57;;;;;;;13.85;63.23;100869.16;2101990;28;20131;-78
2022/04/02 03:34:37;;;;;;;25.38;6.28;;;;;;;13.84;63.17;100873.63;2102181;28;20044;-78
2022/04/02 03:36:00;;;;;;;50.63;7.20;;;;;;;13.81;63.20;100875.34;2106563;28;20492;-78
2022/04/02 03:37:24;;;;;;;31.33;5.97;;;;;;;13.79;63.25;100875.34;2092536;28;20056;-78
2022/04/02 03:38:48;;;;;;;21.38;4.45;;;;;;;13.75;63.42;100880.63;2099593;28;20047;-79
2022/04/02 03:40:14;;;;;;;34.30;6.43;;;;;;;13.67;63.57;100880.59;2095491;28;20040;-79
2022/04/02 03:41:41;;;;;;;33.20;7.40;;;;;;;13.61;63.86;100891.19;2108072;28;20067;-79
2022/04/02 03:43:07;;;;;;;37.90;7.90;;;;;;;13.59;64.21;100890.28;2101978;28;20051;-78
2022/04/02 03:44:36;;;;;;;34.33;7.18;;;;;;;13.62;64.05;100886.75;2100127;28;20151;-78
2022/04/02 03:47:38;;;;;;;49.45;7.28;;;;;;;13.66;63.64;100899.16;2103169;28;20044;-78
2022/04/02 03:49:01;;;;;;;27.33;6.28;;;;;;;13.67;63.74;100890.31;2095410;28;20052;-79
2022/04/02 03:50:26;;;;;;;34.15;6.70;;;;;;;13.70;63.69;100895.66;2099771;28;20055;-78
2022/04/02 03:51:53;;;;;;;19.63;5.82;;;;;;;13.70;63.49;100883.28;2099281;28;20127;-79
2022/04/02 03:53:18;;;;;;;30.75;6.10;;;;;;;13.72;63.38;100893.91;2101461;28;20243;-78
2022/04/02 03:54:54;;;;;;;32.47;5.68;;;;;;;13.69;63.43;100892.09;2102524;28;20427;-78
2022/04/02 03:56:17;;;;;;;35.72;5.97;;;;;;;13.68;63.38;100895.63;2102080;28;20126;-78
2022/04/02 03:57:49;;;;;;;28.52;5.22;;;;;;;13.69;63.34;100896.53;2102265;28;20044;-78
2022/04/02 03:59:13;;;;;;;30.00;4.88;;;;;;;13.71;63.18;100895.66;2107140;28;20048;-78
2022/04/02 04:00:46;;;;;;;32.13;5.53;;;;;;;13.71;63.07;100902.75;2102546;28;20123;-78
2022/04/02 04:02:08;;;;;;;21.13;4.68;;;;;;;13.70;63.03;100906.25;2113911;28;20063;-78
2022/04/02 04:03:32;;;;;;;24.88;4.60;;;;;;;13.65;63.05;100905.34;2106411;28;20071;-78
2022/04/02 04:04:53;;;;;;;25.42;6.20;;;;;;;13.64;63.12;100907.13;2104279;28;20076;-79
2022/04/02 04:06:18;;;;;;;43.92;8.25;;;;;;;13.73;62.86;100908.91;2100181;28;20399;-78
2022/04/02 04:07:42;;;;;;;22.58;5.90;;;;;;;13.76;62.56;100899.22;2102124;28;20059;-79
2022/04/02 04:09:07;;;;;;;36.03;7.68;;;;;;;13.81;62.39;100900.13;2101153;28;20373;-79
2022/04/02 04:10:31;;;;;;;34.20;4.00;;;;;;;13.85;62.05;100904.53;2103077;28;20048;-79
2022/04/02 04:11:57;;;;;;;30.02;6.18;;;;;;;13.90;61.92;100908.13;2113179;28;20596;-77
2022/04/02 04:13:23;;;;;;;23.08;3.65;;;;;;;13.95;61.70;100908.16;2102253;28;20479;-78
2022/04/02 04:14:49;;;;;;;29.55;3.75;;;;;;;14.01;61.50;100915.25;2105829;28;20043;-79
2022/04/02 04:16:12;;;;;;;28.63;6.45;;;;;;;14.05;61.38;100915.25;2113303;28;20531;-78
2022/04/02 04:17:36;;;;;;;25.13;5.00;;;;;;;14.06;61.20;100911.72;2104829;28;20052;-78
2022/04/02 04:18:59;;;;;;;37.88;5.10;;;;;;;14.10;61.11;100917.94;2096440;28;20048;-78
2022/04/02 04:20:21;;;;;;;29.17;6.38;;;;;;;14.14;60.74;100922.38;2106203;28;20044;-78
2022/04/02 04:21:45;;;;;;;24.70;5.35;;;;;;;14.17;60.89;100917.09;2103090;28;20082;-78
2022/04/02 04:23:08;;;;;;;39.67;7.35;;;;;;;14.16;60.85;100915.31;2101508;28;20036;-79
2022/04/02 04:24:33;;;;;;;25.98;5.68;;;;;;;14.20;60.72;100917.97;2108578;28;20643;-79
2022/04/02 04:25:59;;;;;;;28.38;6.95;;;;;;;14.22;60.65;100913.56;2108973;27;20047;-78
2022/04/02 04:27:24;;;;;;;28.05;5.68;;;;;;;14.27;60.68;100910.91;2097633;28;20066;-78
2022/04/02 04:28:46;;;;;;;23.42;5.05;;;;;;;14.26;60.62;100914.44;2108043;28;20496;-79
2022/04/02 04:30:13;;;;;;;24.48;4.38;;;;;;;14.25;60.68;100905.59;2102839;28;20043;-78
2022/04/02 04:31:40;;;;;;;35.25;5.40;;;;;;;14.31;60.91;100910.91;2112327;28;20043;-78
2022/04/02 04:33:04;;;;;;;31.35;5.68;;;;;;;14.40;61.08;100911.84;2104753;28;20059;-78
2022/04/02 04:34:25;;;;;;;17.20;3.22;;;;;;;14.54;61.13;100915.44;2103047;28;20051;-81
2022/04/02 04:35:49;;;;;;;24.77;4.95;;;;;;;14.68;61.11;100911.03;2108577;28;20031;-78
2022/04/02 04:37:12;;;;;;;29.00;4.70;;;;;;;14.81;61.02;100915.47;2111664;28;20055;-78
2022/04/02 04:38:36;;;;;;;10.40;2.75;;;;;;;14.94;61.08;100922.56;2103788;28;20083;-77
2022/04/02 04:40:08;;;;;;;24.65;4.30;;;;;;;15.08;61.03;100926.13;2095128;28;20056;-81
2022/04/02 04:41:33;;;;;;;34.10;5.22;;;;;;;15.21;61.01;100921.69;2103750;28;20622;-79
2022/04/02 04:42:58;;;;;;;21.80;3.70;;;;;;;15.32;61.08;100916.34;2107028;28;20196;-78
2022/04/02 04:44:37;;;;;;;18.75;4.35;;;;;;;15.45;60.97;100916.31;2100769;28;20044;-78
2022/04/02 04:46:01;;;;;;;19.20;3.58;;;;;;;15.54;61.06;100918.13;2100874;28;20566;-78
2022/04/02 04:47:29;;;;;;;35.75;6.32;;;;;;;15.67;61.04;100929.63;2103083;28;21143;-78
2022/04/02 04:48:53;;;;;;;16.73;4.38;;;;;;;15.76;60.92;100917.16;2102264;28;20131;-79
2022/04/02 04:50:18;;;;;;;14.68;3.80;;;;;;;15.85;61.02;100914.47;2102191;28;20070;-79
2022/04/02 04:51:42;;;;;;;12.55;2.63;;;;;;;15.94;60.88;100917.13;2109824;28;20396;-78
2022/04/02 04:53:05;;;;;;;21.27;3.85;;;;;;;16.03;60.79;100925.94;2103544;28;20462;-78
2022/04/02 04:54:28;;;;;;;31.15;6.15;;;;;;;16.12;60.68;100910.81;2102245;28;20044;-77
2022/04/02 04:55:51;;;;;;;13.85;3.30;;;;;;;16.22;60.54;100915.19;2100801;28;20090;-79
2022/04/02 04:57:18;;;;;;;19.23;4.95;;;;;;;16.30;60.39;100915.16;2104120;28;20043;-80
2022/04/02 04:58:56;;;;;;;16.80;3.90;;;;;;;16.40;59.86;100911.56;2106616;28;20050;-80
2022/04/02 05:00:24;;;;;;;24.30;4.43;;;;;;;16.51;59.59;100904.38;2094818;28;20063;-78
2022/04/02 05:01:48;;;;;;;24.40;4.78;;;;;;;16.58;58.88;100911.44;2100454;28;20047;-78
2022/04/02 05:03:17;;;;;;;24.38;5.07;;;;;;;16.69;58.41;100919.38;2102284;28;20091;-79
2022/04/02 05:04:44;;;;;;;12.18;3.75;;;;;;;16.77;57.96;100919.34;2097434;28;20036;-78
2022/04/02 05:06:11;;;;;;;20.05;3.58;;;;;;;16.86;57.45;100921.94;2093553;28;20072;-78
2022/04/02 05:07:35;;;;;;;28.95;4.78;;;;;;;16.91;57.22;100921.00;2096655;28;20774;-77
2022/04/02 05:08:58;;;;;;;16.20;3.97;;;;;;;17.00;56.88;100922.72;2099315;28;20051;-76
2022/04/02 05:10:28;;;;;;;35.92;6.47;;;;;;;17.08;56.31;100912.84;2101233;28;20044;-77
2022/04/02 05:11:53;;;;;;;22.52;4.35;;;;;;;17.17;55.88;100917.25;2097140;28;20083;-76
2022/04/02 05:13:17;;;;;;;30.52;5.30;;;;;;;17.24;55.25;100914.50;2106578;28;20130;-77
2022/04/02 05:14:43;;;;;;;27.80;3.97;;;;;;;17.32;55.03;100912.66;2096211;28;20132;-77
2022/04/02 05:16:07;;;;;;;24.38;4.55;;;;;;;17.40;54.57;100910.78;2094552;28;20159;-77
2022/04/02 05:17:30;;;;;;;22.42;3.80;;;;;;;17.48;53.89;100913.38;2095308;28;20155;-77
2022/04/02 05:18:55;;;;;;;25.00;6.30;;;;;;;17.58;53.53;100916.84;2103907;28;20047;-77
2022/04/02 05:20:20;;;;;;;25.83;4.97;;;;;;;17.68;53.15;100921.19;2107857;28;20039;-77
2022/04/02 05:21:44;;;;;;;23.65;5.00;;;;;;;17.78;52.81;100925.56;2100688;28;20059;-78
2022/04/02 05:23:11;;;;;;;27.70;5.32;;;;;;;17.87;52.07;100923.66;2103415;28;20043;-77
2022/04/02 05:24:35;;;;;;;26.92;4.43;;;;;;;17.95;51.27;100928.91;2103486;28;20087;-77
2022/04/02 05:25:59;;;;;;;24.67;4.82;;;;;;;18.05;50.73;100938.56;2108543;28;20117;-77
2022/04/02 05:27:26;;;;;;;25.67;5.68;;;;;;;18.15;50.68;100936.69;2103160;28;20048;-77
2022/04/02 05:28:50;;;;;;;23.25;4.85;;;;;;;18.23;50.62;100927.66;2100545;28;20456;-78
2022/04/02 05:30:12;;;;;;;18.92;4.57;;;;;;;18.34;50.43;100935.53;2111088;28;20054;-78
2022/04/02 05:31:35;;;;;;;32.70;5.70;;;;;;;18.43;50.43;100931.84;2105395;28;20158;-80
2022/04/02 05:32:58;;;;;;;28.65;6.07;;;;;;;18.50;50.32;100934.44;2100680;28;20039;-78
2022/04/02 05:34:22;;;;;;;35.80;5.43;;;;;;;18.61;49.92;100931.63;2101313;28;20872;-78
2022/04/02 05:35:48;;;;;;;34.90;6.70;;;;;;;18.71;49.64;100939.47;2100605;28;20090;-78
2022/04/02 05:37:10;;;;;;;21.15;3.63;;;;;;;18.79;49.03;100934.00;2108327;28;20082;-78
2022/04/02 05:38:33;;;;;;;16.80;4.07;;;;;;;18.88;48.85;100936.56;2096645;28;20052;-78
2022/04/02 05:39:56;;;;;;;31.63;6.32;;;;;;;18.96;48.71;100940.00;2108636;28;20391;-78
2022/04/02 05:41:21;;;;;;;23.25;4.10;;;;;;;19.02;48.32;100944.38;2102660;28;20051;-78
2022/04/02 05:42:45;;;;;;;35.30;5.47;;;;;;;19.10;48.19;100947.78;2098688;28;20137;-78
2022/04/02 05:44:09;;;;;;;28.95;4.85;;;;;;;19.23;48.03;100949.34;2102279;28;20679;-78
2022/04/02 05:45:32;;;;;;;37.90;5.15;;;;;;;19.34;47.34;100950.06;2090542;28;20052;-77
2022/04/02 05:46:55;;;;;;;30.70;6.63;;;;;;;19.43;46.85;100951.69;2096408;28;20074;-78
2022/04/02 05:48:20;;;;;;;33.17;6.07;;;;;;;19.52;46.45;100956.91;2107278;28;20040;-77
2022/04/02 05:49:48;;;;;;;28.45;4.85;;;;;;;19.62;45.92;100950.50;2110138;28;20682;-78
2022/04/02 05:51:12;;;;;;;17.40;3.65;;;;;;;19.68;45.52;100957.53;2110817;27;20039;-78
2022/04/02 05:52:36;;;;;;;32.90;5.57;;;;;;;19.76;45.46;100963.59;2103181;28;20052;-77
2022/04/02 05:53:59;;;;;;;40.53;7.18;;;;;;;19.87;45.69;100959.84;2107756;28;20043;-77
2022/04/02 05:55:22;;;;;;;18.73;4.45;;;;;;;20.00;45.60;100963.16;2109268;27;20084;-78
2022/04/02 05:56:47;;;;;;;22.98;4.30;;;;;;;20.10;45.32;100959.38;2101856;28;20056;-77
2022/04/02 05:58:12;;;;;;;29.73;6.65;;;;;;;20.24;45.10;100964.44;2107219;28;20072;-79
2022/04/02 05:59:35;;;;;;;28.48;5.32;;;;;;;20.36;44.96;100958.84;2110042;28;20054;-80
2022/04/02 06:01:00;;;;;;;31.38;5.72;;;;;;;20.46;44.30;100967.59;2110130;28;20396;-79
2022/04/02 06:02:22;;;;;;;21.50;4.85;;;;;;;20.54;44.14;100969.19;2102787;28;20059;-78
2022/04/02 06:03:46;;;;;;;27.10;4.55;;;;;;;20.63;43.81;100965.41;2096499;28;20095;-78
2022/04/02 06:05:13;;;;;;;36.88;6.05;;;;;;;20.75;43.73;100970.50;2112272;27;20456;-79
2022/04/02 06:06:36;;;;;;;35.95;5.43;;;;;;;20.86;43.48;100972.94;2102672;28;20036;-79
2022/04/02 06:07:57;;;;;;;30.60;4.95;;;;;;;21.00;43.52;100974.38;2097777;28;20055;-77
2022/04/02 06:09:20;;;;;;;38.72;5.38;;;;;;;21.09;42.85;100970.59;2105471;28;20034;-79
2022/04/02 06:10:43;;;;;;;37.30;6.72;;;;;;;21.18;42.50;100970.41;2110493;28;20048;-78
2022/04/02 06:12:06;;;;;;;24.52;5.32;;;;;;;21.28;42.15;100969.25;2100959;28;20628;-80
2022/04/02 06:13:29;;;;;;;25.75;5.93;;;;;;;21.37;42.23;100973.50;2108331;28;20516;-79
2022/04/02 06:14:51;;;;;;;29.60;5.68;;;;;;;21.48;41.93;100980.38;2104458;28;20040;-79
2022/04/02 06:16:14;;;;;;;34.50;7.25;;;;;;;21.57;41.73;100979.25;2106957;28;20044;-79
2022/04/02 06:17:38;;;;;;;25.00;5.45;;;;;;;21.62;41.42;100977.31;2100857;28;20488;-78
2022/04/02 06:19:03;;;;;;;30.77;7.55;;;;;;;21.69;41.32;100981.63;2101704;28;20048;-80
2022/04/02 06:20:27;;;;;;;33.08;6.18;;;;;;;21.79;41.05;100974.22;2116150;27;20617;-78
2022/04/02 06:21:51;;;;;;;28.52;7.82;;;;;;;21.83;40.96;100981.25;2111789;28;20036;-78
2022/04/02 06:23:14;;;;;;;43.05;7.60;;;;;;;21.93;40.75;100976.50;2106474;28;20184;-81
2022/04/02 06:24:36;;;;;;;31.65;6.97;;;;;;;22.02;40.73;100978.97;2107193;28;20047;-82
2022/04/02 06:25:59;;;;;;;;;;;;;;;22.06;40.33;100978.81;2122383;27;20043;-79
2022/04/02 06:27:23;;;;;;;23.08;5.93;;;;;;;22.11;40.29;100984.97;2113518;28;19920;-80
2022/04/02 06:28:45;;;;;;;36.95;7.20;;;;;;;22.18;40.00;100983.00;2111492;27;20063;-81
2022/04/02 06:30:09;;;;;;;25.45;5.25;;;;;;;22.22;39.39;100992.72;2112324;27;20047;-79
2022/04/02 06:31:32;;;;;;;33.95;4.72;;;;;;;22.20;39.24;100987.41;2107841;28;20051;-79
2022/04/02 06:32:56;;;;;;;35.65;6.95;;;;;;;22.29;39.60;100990.75;2097416;28;20092;-78
2022/04/02 06:34:18;;;;;;;31.52;8.27;;;;;;;22.37;39.22;100992.31;2099783;28;20038;-78
2022/04/02 06:35:44;;;;;;;45.25;8.02;;;;;;;22.44;39.28;101001.06;2093744;28;20068;-80